sensor_id;sensor_type;location;lat;lon;timestamp;pressure;altitude;pressure_sealevel;temperature;humidity
21960;BME280;11144;43.030;25.108;2023-03-04T00:00:12;99338.91;;;6.73;100.00
21960;BME280;11144;43.030;25.108;2023-03-04T00:01:46;99344.09;;;6.76;100.00
21960;BME280;11144;43.030;25.108;2023-03-04T00:03:20;99335.25;;;6.80;100.00
21960;BME280;11144;43.030;25.108;2023-03-04T00:04:53;99336.94;;;6.84;100.00
21960;BME280;11144;43.030;25.108;2023-03-04T00:06:26;99342.94;;;6.89;100.00
21960;BME280;11144;43.030;25.108;2023-03-04T00:07:59;99339.38;;;6.93;100.00
21960;BME280;11144;43.030;25.108;2023-03-04T00:09:31;99341.03;;;6.97;100.00
21960;BME280;11144;43.030;25.108;2023-03-04T00:11:04;99331.25;;;7.02;100.00
21960;BME280;11144;43.030;25.108;2023-03-04T00:12:36;99333.84;;;7.05;100.00
21960;BME280;11144;43.030;25.108;2023-03-04T00:14:10;99338.22;;;7.07;100.00
21960;BME280;11144;43.030;25.108;2023-03-04T00:15:42;99325.94;;;7.05;100.00
21960;BME280;11144;43.030;25.108;2023-03-04T00:17:15;99334.78;;;7.03;100.00
21960;BME280;11144;43.030;25.108;2023-03-04T00:18:50;99332.16;;;7.01;100.00
21960;BME280;11144;43.030;25.108;2023-03-04T00:20:23;99328.72;;;6.99;100.00
21960;BME280;11144;43.030;25.108;2023-03-04T00:21:57;99327.00;;;6.97;100.00
21960;BME280;11144;43.030;25.108;2023-03-04T00:23:30;99326.16;;;6.96;100.00
21960;BME280;11144;43.030;25.108;2023-03-04T00:25:04;99323.59;;;6.93;100.00
21960;BME280;11144;43.030;25.108;2023-03-04T00:26:37;99327.19;;;6.89;100.00
21960;BME280;11144;43.030;25.108;2023-03-04T00:28:09;99332.50;;;6.86;100.00
21960;BME280;11144;43.030;25.108;2023-03-04T00:29:43;99314.97;;;6.87;100.00
21960;BME280;11144;43.030;25.108;2023-03-04T00:31:16;99323.63;;;6.92;100.00
21960;BME280;11144;43.030;25.108;2023-03-04T00:32:50;99327.06;;;6.95;100.00
21960;BME280;11144;43.030;25.108;2023-03-04T00:34:25;99327.16;;;6.91;100.00
21960;BME280;11144;43.030;25.108;2023-03-04T00:35:58;99336.72;;;6.93;100.00
21960;BME280;11144;43.030;25.108;2023-03-04T00:37:30;99336.66;;;6.96;100.00
21960;BME280;11144;43.030;25.108;2023-03-04T00:39:04;99326.16;;;6.96;100.00
21960;BME280;11144;43.030;25.108;2023-03-04T00:40:39;99328.72;;;6.99;100.00
21960;BME280;11144;43.030;25.108;2023-03-04T00:42:12;99327.81;;;7.00;100.00
21960;BME280;11144;43.030;25.108;2023-03-04T00:43:45;99317.31;;;7.00;100.00
21960;BME280;11144;43.030;25.108;2023-03-04T00:45:18;99313.72;;;7.04;100.00
21960;BME280;11144;43.030;25.108;2023-03-04T00:46:52;99318.84;;;7.11;100.00
21960;BME280;11144;43.030;25.108;2023-03-04T00:48:25;99321.44;;;7.12;100.00
21960;BME280;11144;43.030;25.108;2023-03-04T00:49:59;99318.75;;;7.13;100.00
21960;BME280;11144;43.030;25.108;2023-03-04T00:51:33;99310.81;;;7.17;100.00
21960;BME280;11144;43.030;25.108;2023-03-04T00:53:06;99314.25;;;7.20;100.00
21960;BME280;11144;43.030;25.108;2023-03-04T00:54:39;99312.44;;;7.22;100.00
21960;BME280;11144;43.030;25.108;2023-03-04T00:56:12;99311.41;;;7.28;100.00
21960;BME280;11144;43.030;25.108;2023-03-04T00:57:45;99314.03;;;7.29;100.00
21960;BME280;11144;43.030;25.108;2023-03-04T00:59:19;99315.75;;;7.30;100.00
21960;BME280;11144;43.030;25.108;2023-03-04T01:00:52;99318.34;;;7.32;100.00
21960;BME280;11144;43.030;25.108;2023-03-04T01:02:25;99317.47;;;7.33;100.00
21960;BME280;11144;43.030;25.108;2023-03-04T01:03:58;99319.19;;;7.34;100.00
21960;BME280;11144;43.030;25.108;2023-03-04T01:05:33;99323.53;;;7.35;100.00
21960;BME280;11144;43.030;25.108;2023-03-04T01:07:07;99321.75;;;7.37;100.00
21960;BME280;11144;43.030;25.108;2023-03-04T01:08:40;99322.56;;;7.39;100.00
21960;BME280;11144;43.030;25.108;2023-03-04T01:10:14;99335.72;;;7.39;100.00
21960;BME280;11144;43.030;25.108;2023-03-04T01:11:47;99322.63;;;7.36;100.00
21960;BME280;11144;43.030;25.108;2023-03-04T01:13:21;99327.06;;;7.34;100.00
21960;BME280;11144;43.030;25.108;2023-03-04T01:14:54;99324.44;;;7.34;100.00
21960;BME280;11144;43.030;25.108;2023-03-04T01:16:27;99322.63;;;7.36;100.00
21960;BME280;11144;43.030;25.108;2023-03-04T01:18:01;99325.34;;;7.33;100.00
21960;BME280;11144;43.030;25.108;2023-03-04T01:19:34;99326.31;;;7.29;100.00
21960;BME280;11144;43.030;25.108;2023-03-04T01:21:07;99327.22;;;7.26;100.00
21960;BME280;11144;43.030;25.108;2023-03-04T01:22:41;99322.09;;;7.22;100.00
21960;BME280;11144;43.030;25.108;2023-03-04T01:24:14;99318.63;;;7.20;100.00
21960;BME280;11144;43.030;25.108;2023-03-04T01:25:47;99314.31;;;7.17;100.00
21960;BME280;11144;43.030;25.108;2023-03-04T01:27:22;99322.22;;;7.16;100.00
21960;BME280;11144;43.030;25.108;2023-03-04T01:28:56;99326.75;;;7.09;100.00
21960;BME280;11144;43.030;25.108;2023-03-04T01:30:29;99325.09;;;7.05;100.00
21960;BME280;11144;43.030;25.108;2023-03-04T01:32:02;99311.94;;;7.07;100.00
21960;BME280;11144;43.030;25.108;2023-03-04T01:33:36;99319.72;;;7.09;100.00
21960;BME280;11144;43.030;25.108;2023-03-04T01:35:09;99327.53;;;7.13;100.00
21960;BME280;11144;43.030;25.108;2023-03-04T01:36:43;99324.81;;;7.17;100.00
21960;BME280;11144;43.030;25.108;2023-03-04T01:38:16;99329.13;;;7.20;100.00
21960;BME280;11144;43.030;25.108;2023-03-04T01:39:50;99322.16;;;7.19;100.00
21960;BME280;11144;43.030;25.108;2023-03-04T01:41:26;99325.59;;;7.21;100.00
21960;BME280;11144;43.030;25.108;2023-03-04T01:43:00;99317.66;;;7.24;100.00
21960;BME280;11144;43.030;25.108;2023-03-04T01:44:33;99319.38;;;7.25;100.00
21960;BME280;11144;43.030;25.108;2023-03-04T01:46:09;99315.09;;;7.21;100.00
21960;BME280;11144;43.030;25.108;2023-03-04T01:47:47;99317.63;;;7.25;100.00
21960;BME280;11144;43.030;25.108;2023-03-04T01:49:20;99318.50;;;7.26;100.00
21960;BME280;11144;43.030;25.108;2023-03-04T01:50:54;99317.59;;;7.27;100.00
21960;BME280;11144;43.030;25.108;2023-03-04T01:52:29;99301.75;;;7.30;100.00
21960;BME280;11144;43.030;25.108;2023-03-04T01:54:01;99314.84;;;7.33;100.00
21960;BME280;11144;43.030;25.108;2023-03-04T01:55:35;99307.75;;;7.35;100.00
21960;BME280;11144;43.030;25.108;2023-03-04T01:57:15;99307.69;;;7.38;100.00
21960;BME280;11144;43.030;25.108;2023-03-04T01:59:11;99305.94;;;7.38;100.00
21960;BME280;11144;43.030;25.108;2023-03-04T02:00:44;99303.44;;;7.32;100.00
21960;BME280;11144;43.030;25.108;2023-03-04T02:02:17;99306.06;;;7.32;100.00
21960;BME280;11144;43.030;25.108;2023-03-04T02:03:49;99315.66;;;7.35;100.00
21960;BME280;11144;43.030;25.108;2023-03-04T02:05:23;99307.75;;;7.35;100.00
21960;BME280;11144;43.030;25.108;2023-03-04T02:06:58;99304.25;;;7.34;100.00
21960;BME280;11144;43.030;25.108;2023-03-04T02:08:34;99307.75;;;7.35;100.00
21960;BME280;11144;43.030;25.108;2023-03-04T02:10:07;99311.28;;;7.34;100.00
21960;BME280;11144;43.030;25.108;2023-03-04T02:11:41;99298.13;;;7.35;100.00
21960;BME280;11144;43.030;25.108;2023-03-04T02:13:16;99306.03;;;7.34;100.00
21960;BME280;11144;43.030;25.108;2023-03-04T02:14:49;99301.69;;;7.33;100.00
21960;BME280;11144;43.030;25.108;2023-03-04T02:16:22;99302.44;;;7.38;100.00
21960;BME280;11144;43.030;25.108;2023-03-04T02:17:55;99300.72;;;7.37;100.00
21960;BME280;11144;43.030;25.108;2023-03-04T02:19:38;99298.84;;;7.40;100.00
21960;BME280;11144;43.030;25.108;2023-03-04T02:21:18;99297.09;;;7.41;100.00
21960;BME280;11144;43.030;25.108;2023-03-04T02:23:00;99295.44;;;7.37;100.00
21960;BME280;11144;43.030;25.108;2023-03-04T02:24:40;99301.44;;;7.42;100.00
21960;BME280;11144;43.030;25.108;2023-03-04T02:26:18;99305.81;;;7.43;100.00
21960;BME280;11144;43.030;25.108;2023-03-04T02:27:54;99300.47;;;7.46;100.00
21960;BME280;11144;43.030;25.108;2023-03-04T02:29:27;99302.13;;;7.50;100.00
21960;BME280;11144;43.030;25.108;2023-03-04T02:31:02;99302.13;;;7.50;100.00
21960;BME280;11144;43.030;25.108;2023-03-04T02:32:34;99301.38;;;7.45;100.00
21960;BME280;11144;43.030;25.108;2023-03-04T02:34:12;99302.44;;;7.38;100.00
21960;BME280;11144;43.030;25.108;2023-03-04T02:35:47;99307.91;;;7.29;100.00
21960;BME280;11144;43.030;25.108;2023-03-04T02:37:19;99300.91;;;7.28;100.00
21960;BME280;11144;43.030;25.108;2023-03-04T02:39:02;99306.22;;;7.25;100.00
21960;BME280;11144;43.030;25.108;2023-03-04T02:40:35;99309.69;;;7.27;100.00
21960;BME280;11144;43.030;25.108;2023-03-04T02:42:11;99300.88;;;7.29;100.00
21960;BME280;11144;43.030;25.108;2023-03-04T02:43:47;99306.13;;;7.29;100.00
21960;BME280;11144;43.030;25.108;2023-03-04T02:45:38;99306.97;;;7.31;100.00
21960;BME280;11144;43.030;25.108;2023-03-04T02:47:15;99306.06;;;7.32;100.00
21960;BME280;11144;43.030;25.108;2023-03-04T02:48:50;99307.81;;;7.32;100.00
21960;BME280;11144;43.030;25.108;2023-03-04T02:50:25;99300.91;;;7.28;100.00
21960;BME280;11144;43.030;25.108;2023-03-04T02:52:01;99306.22;;;7.25;100.00
21960;BME280;11144;43.030;25.108;2023-03-04T02:53:35;99302.72;;;7.26;100.00
21960;BME280;11144;43.030;25.108;2023-03-04T02:55:09;99294.94;;;7.21;100.00
21960;BME280;11144;43.030;25.108;2023-03-04T02:56:44;99294.81;;;7.27;100.00
21960;BME280;11144;43.030;25.108;2023-03-04T02:58:20;99295.66;;;7.28;100.00
21960;BME280;11144;43.030;25.108;2023-03-04T02:59:53;99295.66;;;7.28;100.00
21960;BME280;11144;43.030;25.108;2023-03-04T03:01:29;99302.84;;;7.20;100.00
21960;BME280;11144;43.030;25.108;2023-03-04T03:03:02;99288.19;;;7.09;100.00
21960;BME280;11144;43.030;25.108;2023-03-04T03:04:36;99298.47;;;7.20;100.00
21960;BME280;11144;43.030;25.108;2023-03-04T03:06:13;99299.31;;;7.21;100.00
21960;BME280;11144;43.030;25.108;2023-03-04T03:07:46;99300.19;;;7.21;100.00
21960;BME280;11144;43.030;25.108;2023-03-04T03:09:19;99294.94;;;7.21;100.00
21960;BME280;11144;43.030;25.108;2023-03-04T03:10:53;99299.25;;;7.24;100.00
21960;BME280;11144;43.030;25.108;2023-03-04T03:12:28;99300.97;;;7.25;100.00
21960;BME280;11144;43.030;25.108;2023-03-04T03:14:01;99306.22;;;7.25;100.00
21960;BME280;11144;43.030;25.108;2023-03-04T03:15:35;99306.31;;;7.22;100.00
21960;BME280;11144;43.030;25.108;2023-03-04T03:17:13;99304.50;;;7.24;100.00
21960;BME280;11144;43.030;25.108;2023-03-04T03:18:47;99306.22;;;7.25;100.00
21960;BME280;11144;43.030;25.108;2023-03-04T03:20:20;99315.84;;;7.27;100.00
21960;BME280;11144;43.030;25.108;2023-03-04T03:21:52;99307.00;;;7.30;100.00
21960;BME280;11144;43.030;25.108;2023-03-04T03:23:25;99310.47;;;7.30;100.00
21960;BME280;11144;43.030;25.108;2023-03-04T03:24:59;99301.72;;;7.31;100.00
21960;BME280;11144;43.030;25.108;2023-03-04T03:26:31;99313.97;;;7.32;100.00
21960;BME280;11144;43.030;25.108;2023-03-04T03:28:04;99308.66;;;7.34;100.00
21960;BME280;11144;43.030;25.108;2023-03-04T03:29:39;99310.34;;;7.36;100.00
21960;BME280;11144;43.030;25.108;2023-03-04T03:31:12;99308.56;;;7.38;100.00
21960;BME280;11144;43.030;25.108;2023-03-04T03:32:50;99306.78;;;7.39;100.00
21960;BME280;11144;43.030;25.108;2023-03-04T03:34:23;99303.31;;;7.38;100.00
21960;BME280;11144;43.030;25.108;2023-03-04T03:35:57;99305.88;;;7.40;100.00
21960;BME280;11144;43.030;25.108;2023-03-04T03:37:31;99303.38;;;7.35;100.00
21960;BME280;11144;43.030;25.108;2023-03-04T03:39:03;99307.81;;;7.32;100.00
21960;BME280;11144;43.030;25.108;2023-03-04T03:40:36;99306.97;;;7.31;100.00
21960;BME280;11144;43.030;25.108;2023-03-04T03:42:09;99304.38;;;7.30;100.00
21960;BME280;11144;43.030;25.108;2023-03-04T03:43:43;99313.09;;;7.32;100.00
21960;BME280;11144;43.030;25.108;2023-03-04T03:45:17;99306.03;;;7.34;100.00
21960;BME280;11144;43.030;25.108;2023-03-04T03:46:50;99301.75;;;7.30;100.00
21960;BME280;11144;43.030;25.108;2023-03-04T03:48:23;99308.75;;;7.29;100.00
21960;BME280;11144;43.030;25.108;2023-03-04T03:49:56;99305.31;;;7.27;100.00
21960;BME280;11144;43.030;25.108;2023-03-04T03:51:28;99301.84;;;7.25;100.00
21960;BME280;11144;43.030;25.108;2023-03-04T03:53:01;99295.81;;;7.22;100.00
21960;BME280;11144;43.030;25.108;2023-03-04T03:54:35;99299.25;;;7.24;100.00
21960;BME280;11144;43.030;25.108;2023-03-04T03:56:07;99295.66;;;7.28;100.00
21960;BME280;11144;43.030;25.108;2023-03-04T03:57:40;99299.19;;;7.27;100.00
21960;BME280;11144;43.030;25.108;2023-03-04T03:59:12;99295.59;;;7.31;100.00
21960;BME280;11144;43.030;25.108;2023-03-04T04:00:47;99280.88;;;7.22;100.00
21960;BME280;11144;43.030;25.108;2023-03-04T04:02:21;99304.31;;;7.33;100.00
21960;BME280;11144;43.030;25.108;2023-03-04T04:03:54;99310.34;;;7.36;100.00
21960;BME280;11144;43.030;25.108;2023-03-04T04:05:27;99304.22;;;7.36;100.00
21960;BME280;11144;43.030;25.108;2023-03-04T04:07:01;99306.03;;;7.34;100.00
21960;BME280;11144;43.030;25.108;2023-03-04T04:08:33;99301.63;;;7.34;100.00
21960;BME280;11144;43.030;25.108;2023-03-04T04:10:09;99307.75;;;7.35;100.00
21960;BME280;11144;43.030;25.108;2023-03-04T04:11:42;99304.22;;;7.36;100.00
21960;BME280;11144;43.030;25.108;2023-03-04T04:13:15;99312.03;;;7.39;100.00
21960;BME280;11144;43.030;25.108;2023-03-04T04:14:49;99302.44;;;7.38;100.00
21960;BME280;11144;43.030;25.108;2023-03-04T04:16:23;99305.88;;;7.40;100.00
21960;BME280;11144;43.030;25.108;2023-03-04T04:17:56;99304.97;;;7.42;100.00
21960;BME280;11144;43.030;25.108;2023-03-04T04:19:30;99308.41;;;7.44;100.00
21960;BME280;11144;43.030;25.108;2023-03-04T04:21:03;99301.41;;;7.43;100.00
21960;BME280;11144;43.030;25.108;2023-03-04T04:22:36;99305.75;;;7.46;100.00
21960;BME280;11144;43.030;25.108;2023-03-04T04:24:09;99294.31;;;7.47;100.00
21960;BME280;11144;43.030;25.108;2023-03-04T04:25:42;99310.03;;;7.50;100.00
21960;BME280;11144;43.030;25.108;2023-03-04T04:27:15;99305.66;;;7.49;100.00
21960;BME280;11144;43.030;25.108;2023-03-04T04:28:48;99299.53;;;7.48;100.00
21960;BME280;11144;43.030;25.108;2023-03-04T04:30:21;99300.41;;;7.49;100.00
21960;BME280;11144;43.030;25.108;2023-03-04T04:31:57;99302.97;;;7.52;100.00
21960;BME280;11144;43.030;25.108;2023-03-04T04:33:30;99296.88;;;7.50;100.00
21960;BME280;11144;43.030;25.108;2023-03-04T04:35:04;99297.88;;;7.44;100.00
21960;BME280;11144;43.030;25.108;2023-03-04T04:36:37;99299.69;;;7.42;100.00
21960;BME280;11144;43.030;25.108;2023-03-04T04:38:11;99289.19;;;7.42;100.00
21960;BME280;11144;43.030;25.108;2023-03-04T04:39:44;99292.78;;;7.38;100.00
21960;BME280;11144;43.030;25.108;2023-03-04T04:41:19;99291.00;;;7.39;100.00
21960;BME280;11144;43.030;25.108;2023-03-04T04:42:52;99288.53;;;7.33;100.00
21960;BME280;11144;43.030;25.108;2023-03-04T04:44:26;99284.25;;;7.29;100.00
21960;BME280;11144;43.030;25.108;2023-03-04T04:45:59;99294.84;;;7.26;100.00
21960;BME280;11144;43.030;25.108;2023-03-04T04:47:34;99300.94;;;7.26;100.00
21960;BME280;11144;43.030;25.108;2023-03-04T04:49:07;99300.09;;;7.26;100.00
21960;BME280;11144;43.030;25.108;2023-03-04T04:50:40;99296.59;;;7.25;100.00
21960;BME280;11144;43.030;25.108;2023-03-04T04:52:13;99291.56;;;7.16;100.00
21960;BME280;11144;43.030;25.108;2023-03-04T04:53:46;99296.63;;;7.24;100.00
21960;BME280;11144;43.030;25.108;2023-03-04T04:55:20;99303.66;;;7.23;100.00
21960;BME280;11144;43.030;25.108;2023-03-04T04:56:53;99303.69;;;7.22;100.00
21960;BME280;11144;43.030;25.108;2023-03-04T04:58:26;99306.31;;;7.22;100.00
21960;BME280;11144;43.030;25.108;2023-03-04T05:00:00;99303.69;;;7.22;100.00
21960;BME280;11144;43.030;25.108;2023-03-04T05:01:33;99304.50;;;7.24;100.00
21960;BME280;11144;43.030;25.108;2023-03-04T05:03:08;99308.81;;;7.26;100.00
21960;BME280;11144;43.030;25.108;2023-03-04T05:04:41;99307.97;;;7.26;100.00
21960;BME280;11144;43.030;25.108;2023-03-04T05:06:15;99293.31;;;7.16;100.00
21960;BME280;11144;43.030;25.108;2023-03-04T05:07:47;99309.59;;;7.31;100.00
21960;BME280;11144;43.030;25.108;2023-03-04T05:09:21;99318.47;;;7.27;100.00
21960;BME280;11144;43.030;25.108;2023-03-04T05:10:54;99322.00;;;7.25;100.00
21960;BME280;11144;43.030;25.108;2023-03-04T05:12:28;99320.28;;;7.24;100.00
21960;BME280;11144;43.030;25.108;2023-03-04T05:14:01;99323.75;;;7.26;100.00
21960;BME280;11144;43.030;25.108;2023-03-04T05:15:36;99327.19;;;7.28;100.00
21960;BME280;11144;43.030;25.108;2023-03-04T05:17:09;99328.03;;;7.30;100.00
21960;BME280;11144;43.030;25.108;2023-03-04T05:18:44;99322.75;;;7.31;100.00
21960;BME280;11144;43.030;25.108;2023-03-04T05:20:17;99333.25;;;7.33;100.00
21960;BME280;11144;43.030;25.108;2023-03-04T05:21:50;99334.13;;;7.32;100.00
21960;BME280;11144;43.030;25.108;2023-03-04T05:23:25;99330.66;;;7.31;100.00
21960;BME280;11144;43.030;25.108;2023-03-04T05:24:58;99335.88;;;7.33;100.00
21960;BME280;11144;43.030;25.108;2023-03-04T05:26:32;99335.78;;;7.36;100.00
21960;BME280;11144;43.030;25.108;2023-03-04T05:28:06;99335.72;;;7.39;100.00
21960;BME280;11144;43.030;25.108;2023-03-04T05:29:43;99332.28;;;7.37;100.00
21960;BME280;11144;43.030;25.108;2023-03-04T05:31:17;99335.72;;;7.39;100.00
21960;BME280;11144;43.030;25.108;2023-03-04T05:32:49;99339.19;;;7.41;100.00
21960;BME280;11144;43.030;25.108;2023-03-04T05:34:24;99344.38;;;7.44;100.00
21960;BME280;11144;43.030;25.108;2023-03-04T05:35:57;99346.03;;;7.48;100.00
21960;BME280;11144;43.030;25.108;2023-03-04T05:37:31;99347.69;;;7.52;100.00
21960;BME280;11144;43.030;25.108;2023-03-04T05:39:03;99347.69;;;7.52;100.00
21960;BME280;11144;43.030;25.108;2023-03-04T05:40:37;99346.78;;;7.53;100.00
21960;BME280;11144;43.030;25.108;2023-03-04T05:42:10;99359.88;;;7.56;100.00
21960;BME280;11144;43.030;25.108;2023-03-04T05:43:44;99350.16;;;7.58;100.00
21960;BME280;11144;43.030;25.108;2023-03-04T05:45:17;99353.63;;;7.60;100.00
21960;BME280;11144;43.030;25.108;2023-03-04T05:46:50;99358.91;;;7.60;100.00
21960;BME280;11144;43.030;25.108;2023-03-04T05:48:24;99351.81;;;7.62;100.00
21960;BME280;11144;43.030;25.108;2023-03-04T05:49:57;99349.16;;;7.63;100.00
21960;BME280;11144;43.030;25.108;2023-03-04T05:51:31;99335.28;;;7.57;100.00
21960;BME280;11144;43.030;25.108;2023-03-04T05:53:04;99349.28;;;7.59;100.00
21960;BME280;11144;43.030;25.108;2023-03-04T05:54:37;99344.91;;;7.58;100.00
21960;BME280;11144;43.030;25.108;2023-03-04T05:56:12;99352.78;;;7.58;100.00
21960;BME280;11144;43.030;25.108;2023-03-04T05:57:46;99345.75;;;7.60;100.00
21960;BME280;11144;43.030;25.108;2023-03-04T05:59:19;99349.19;;;7.62;100.00
21960;BME280;11144;43.030;25.108;2023-03-04T06:00:52;99339.53;;;7.62;100.00
21960;BME280;11144;43.030;25.108;2023-03-04T06:02:26;99344.84;;;7.61;100.00
21960;BME280;11144;43.030;25.108;2023-03-04T06:03:58;99342.19;;;7.61;100.00
21960;BME280;11144;43.030;25.108;2023-03-04T06:05:33;99336.03;;;7.62;100.00
21960;BME280;11144;43.030;25.108;2023-03-04T06:07:06;99342.13;;;7.64;100.00
21960;BME280;11144;43.030;25.108;2023-03-04T06:08:39;99342.19;;;7.61;100.00
21960;BME280;11144;43.030;25.108;2023-03-04T06:10:15;99343.16;;;7.58;100.00
21960;BME280;11144;43.030;25.108;2023-03-04T06:11:48;99344.88;;;7.59;100.00
21960;BME280;11144;43.030;25.108;2023-03-04T06:13:22;99337.84;;;7.60;100.00
21960;BME280;11144;43.030;25.108;2023-03-04T06:14:55;99338.53;;;7.68;100.00
21960;BME280;11144;43.030;25.108;2023-03-04T06:16:29;99334.09;;;7.70;100.00
21960;BME280;11144;43.030;25.108;2023-03-04T06:18:02;99325.50;;;7.62;100.00
21960;BME280;11144;43.030;25.108;2023-03-04T06:19:38;99341.81;;;7.76;100.00
21960;BME280;11144;43.030;25.108;2023-03-04T06:21:14;99334.91;;;7.72;100.00
21960;BME280;11144;43.030;25.108;2023-03-04T06:22:47;99334.91;;;7.72;100.00
21960;BME280;11144;43.030;25.108;2023-03-04T06:24:20;99340.03;;;7.78;100.00
21960;BME280;11144;43.030;25.108;2023-03-04T06:25:55;99338.16;;;7.83;100.00
21960;BME280;11144;43.030;25.108;2023-03-04T06:27:29;99332.75;;;7.89;100.00
21960;BME280;11144;43.030;25.108;2023-03-04T06:29:03;99334.31;;;7.96;100.00
21960;BME280;11144;43.030;25.108;2023-03-04T06:30:37;99347.34;;;8.00;100.00
21960;BME280;11144;43.030;25.108;2023-03-04T06:32:12;99340.28;;;8.02;100.00
21960;BME280;11144;43.030;25.108;2023-03-04T06:33:46;99343.84;;;8.01;100.00
21960;BME280;11144;43.030;25.108;2023-03-04T06:35:19;99340.31;;;8.01;100.00
21960;BME280;11144;43.030;25.108;2023-03-04T06:36:54;99337.69;;;8.01;100.00
21960;BME280;11144;43.030;25.108;2023-03-04T06:38:27;99329.94;;;7.95;100.00
21960;BME280;11144;43.030;25.108;2023-03-04T06:40:00;99334.53;;;7.87;100.00
21960;BME280;11144;43.030;25.108;2023-03-04T06:41:34;99339.81;;;7.87;100.00
21960;BME280;11144;43.030;25.108;2023-03-04T06:43:07;99337.19;;;7.85;100.00
21960;BME280;11144;43.030;25.108;2023-03-04T06:44:43;99331.31;;;7.76;100.00
21960;BME280;11144;43.030;25.108;2023-03-04T06:46:17;99338.53;;;7.68;100.00
21960;BME280;11144;43.030;25.108;2023-03-04T06:47:50;99334.97;;;7.69;100.00
21960;BME280;11144;43.030;25.108;2023-03-04T06:49:26;99337.47;;;7.75;100.00
21960;BME280;11144;43.030;25.108;2023-03-04T06:51:04;99333.94;;;7.76;100.00
21960;BME280;11144;43.030;25.108;2023-03-04T06:52:39;99334.78;;;7.78;100.00
21960;BME280;11144;43.030;25.108;2023-03-04T06:54:13;99333.56;;;7.91;100.00
21960;BME280;11144;43.030;25.108;2023-03-04T06:55:45;99336.03;;;7.97;100.00
21960;BME280;11144;43.030;25.108;2023-03-04T06:57:19;99341.16;;;8.03;100.00
21960;BME280;11144;43.030;25.108;2023-03-04T06:58:52;99342.72;;;8.10;100.00
21960;BME280;11144;43.030;25.108;2023-03-04T07:00:26;99344.28;;;8.17;100.00
21960;BME280;11144;43.030;25.108;2023-03-04T07:01:59;99345.88;;;8.24;100.00
21960;BME280;11144;43.030;25.108;2023-03-04T07:03:32;99344.03;;;8.29;100.00
21960;BME280;11144;43.030;25.108;2023-03-04T07:05:06;99342.03;;;8.37;100.00
21960;BME280;11144;43.030;25.108;2023-03-04T07:06:39;99341.97;;;8.40;100.00
21960;BME280;11144;43.030;25.108;2023-03-04T07:08:14;99338.25;;;8.47;100.00
21960;BME280;11144;43.030;25.108;2023-03-04T07:09:47;99344.34;;;8.49;100.00
21960;BME280;11144;43.030;25.108;2023-03-04T07:11:21;99345.06;;;8.54;100.00
21960;BME280;11144;43.030;25.108;2023-03-04T07:12:55;99345.81;;;8.59;100.00
21960;BME280;11144;43.030;25.108;2023-03-04T07:14:28;99343.09;;;8.62;100.00
21960;BME280;11144;43.030;25.108;2023-03-04T07:16:04;99337.66;;;8.68;100.00
21960;BME280;11144;43.030;25.108;2023-03-04T07:17:36;99346.38;;;8.70;100.00
21960;BME280;11144;43.030;25.108;2023-03-04T07:19:10;99345.56;;;8.68;100.00
21960;BME280;11144;43.030;25.108;2023-03-04T07:20:43;99348.09;;;8.71;100.00
21960;BME280;11144;43.030;25.108;2023-03-04T07:22:16;99346.19;;;8.76;100.00
21960;BME280;11144;43.030;25.108;2023-03-04T07:23:51;99342.47;;;8.83;100.00
21960;BME280;11144;43.030;25.108;2023-03-04T07:25:25;99344.13;;;8.87;100.00
21960;BME280;11144;43.030;25.108;2023-03-04T07:26:58;99351.88;;;8.93;100.00
21960;BME280;11144;43.030;25.108;2023-03-04T07:28:31;99344.97;;;8.89;100.00
21960;BME280;11144;43.030;25.108;2023-03-04T07:30:06;99340.41;;;8.94;100.00
21960;BME280;11144;43.030;25.108;2023-03-04T07:31:40;99338.50;;;8.99;100.00
21960;BME280;11144;43.030;25.108;2023-03-04T07:33:13;99338.22;;;9.08;100.00
21960;BME280;11144;43.030;25.108;2023-03-04T07:34:47;99341.50;;;9.16;100.00
21960;BME280;11144;43.030;25.108;2023-03-04T07:36:23;99337.00;;;9.19;100.00
21960;BME280;11144;43.030;25.108;2023-03-04T07:37:59;99338.56;;;9.26;100.00
21960;BME280;11144;43.030;25.108;2023-03-04T07:39:34;99341.91;;;9.31;100.00
21960;BME280;11144;43.030;25.108;2023-03-04T07:41:07;99337.38;;;9.35;100.00
21960;BME280;11144;43.030;25.108;2023-03-04T07:42:40;99347.94;;;9.35;100.00
21960;BME280;11144;43.030;25.108;2023-03-04T07:44:18;99337.38;;;9.35;100.00
21960;BME280;11144;43.030;25.108;2023-03-04T07:45:57;99330.22;;;9.11;100.00
21960;BME280;11144;43.030;25.108;2023-03-04T07:47:31;99332.16;;;9.06;100.00
21960;BME280;11144;43.030;25.108;2023-03-04T07:49:11;99327.59;;;9.11;100.00
21960;BME280;11144;43.030;25.108;2023-03-04T07:50:44;99334.13;;;9.27;100.00
21960;BME280;11144;43.030;25.108;2023-03-04T07:52:20;99333.03;;;9.34;100.00
21960;BME280;11144;43.030;25.108;2023-03-04T07:53:55;99335.41;;;9.43;100.00
21960;BME280;11144;43.030;25.108;2023-03-04T07:55:31;99333.28;;;9.54;100.00
21960;BME280;11144;43.030;25.108;2023-03-04T07:57:05;99333.81;;;9.65;100.00
21960;BME280;11144;43.030;25.108;2023-03-04T07:58:38;99321.28;;;9.71;100.00
21960;BME280;11144;43.030;25.108;2023-03-04T08:00:14;99334.34;;;9.76;100.00
21960;BME280;11144;43.030;25.108;2023-03-04T08:01:47;99323.47;;;9.85;100.00
21960;BME280;11144;43.030;25.108;2023-03-04T08:03:21;99324.06;;;9.93;100.00
21960;BME280;11144;43.030;25.108;2023-03-04T08:04:54;99324.78;;;9.98;100.00
21960;BME280;11144;43.030;25.108;2023-03-04T08:06:28;99323.78;;;10.02;100.00
21960;BME280;11144;43.030;25.108;2023-03-04T08:08:04;99324.50;;;10.07;100.00
21960;BME280;11144;43.030;25.108;2023-03-04T08:09:37;99322.47;;;10.15;100.00
21960;BME280;11144;43.030;25.108;2023-03-04T08:11:14;99317.06;;;10.18;100.00